Time;durP1;ratioP1;P1;durP2;ratioP2;P2;SDS_P1;SDS_P2;PMS_P1;PMS_P2;Temp;Humidity;BMP_temperature;BMP_pressure;BME280_temperature;BME280_humidity;BME280_pressure;Samples;Min_cycle;Max_cycle;Signal;HPM_P1;HPM_P2
2021/03/24 00:01:27;;;;;;;21.80;9.53;;;;;;;4.23;100.00;98975.47;4987369;28;20208;-70
2021/03/24 00:03:54;;;;;;;17.50;8.77;;;;;;;4.34;100.00;98970.91;4992684;28;20210;-70
2021/03/24 00:06:21;;;;;;;19.37;9.77;;;;;;;4.34;100.00;98965.59;4988205;28;20580;-71
2021/03/24 00:08:49;;;;;;;21.73;10.07;;;;;;;4.33;100.00;98971.88;4993778;28;20238;-71
2021/03/24 00:11:16;;;;;;;22.10;10.77;;;;;;;4.08;100.00;98967.13;4989143;28;20637;-70
2021/03/24 00:13:44;;;;;;;30.47;9.43;;;;;;;3.95;100.00;98961.25;4998068;28;20208;-71
2021/03/24 00:16:12;;;;;;;18.83;9.13;;;;;;;4.03;100.00;98961.41;5001849;28;20210;-71
2021/03/24 00:18:39;;;;;;;19.57;9.60;;;;;;;4.20;100.00;98959.88;5004066;28;20247;-71
2021/03/24 00:21:07;;;;;;;20.97;9.73;;;;;;;4.05;100.00;98961.25;4997710;28;20204;-70
2021/03/24 00:23:34;;;;;;;19.00;9.17;;;;;;;4.10;100.00;98961.69;4993737;28;20258;-71
2021/03/24 00:26:01;;;;;;;19.23;9.00;;;;;;;4.10;100.00;98970.44;4995923;28;20565;-70
2021/03/24 00:28:29;;;;;;;24.07;10.33;;;;;;;4.17;100.00;98963.63;4991165;28;20302;-71
2021/03/24 00:30:55;;;;;;;18.97;9.17;;;;;;;4.25;100.00;98969.06;4992924;28;20227;-70
2021/03/24 00:33:26;;;;;;;20.13;10.67;;;;;;;4.11;100.00;98971.31;4992368;28;20211;-71
2021/03/24 00:35:53;;;;;;;20.30;10.07;;;;;;;4.20;100.00;98962.53;4988440;28;20291;-70
2021/03/24 00:38:22;;;;;;;23.87;10.50;;;;;;;4.19;100.00;98963.50;4990196;28;20210;-70
2021/03/24 00:40:51;;;;;;;22.27;10.23;;;;;;;4.07;100.00;98957.50;4994103;28;20661;-70
2021/03/24 00:43:19;;;;;;;20.47;9.30;;;;;;;4.00;100.00;98955.53;4989643;28;20204;-70
2021/03/24 00:45:45;;;;;;;19.60;9.23;;;;;;;3.99;100.00;98957.38;4981807;28;20203;-70
2021/03/24 00:48:19;;;;;;;21.63;9.73;;;;;;;4.00;100.00;98958.19;4988905;28;20610;-71
2021/03/24 00:50:46;;;;;;;23.10;11.27;;;;;;;3.72;100.00;98957.16;4980317;28;20319;-70
2021/03/24 00:53:13;;;;;;;20.87;10.43;;;;;;;3.91;100.00;98954.56;4986718;28;20582;-70
2021/03/24 00:55:40;;;;;;;18.67;10.57;;;;;;;3.92;100.00;98964.16;4987200;28;20207;-70
2021/03/24 00:58:07;;;;;;;19.63;9.63;;;;;;;3.87;100.00;98955.00;4992391;28;20207;-70
2021/03/24 01:00:36;;;;;;;21.37;9.97;;;;;;;3.99;100.00;98959.16;4986872;28;20651;-70
2021/03/24 01:03:04;;;;;;;20.70;10.37;;;;;;;4.03;100.00;98956.13;4987016;28;20702;-70
2021/03/24 01:05:31;;;;;;;25.40;10.13;;;;;;;3.93;100.00;98957.94;4986152;28;20682;-70
2021/03/24 01:08:00;;;;;;;24.37;10.57;;;;;;;3.90;100.00;98959.97;4990883;28;20204;-70
2021/03/24 01:10:29;;;;;;;19.80;9.67;;;;;;;3.76;100.00;98955.09;4988375;28;20235;-70
2021/03/24 01:12:57;;;;;;;21.90;10.00;;;;;;;3.90;100.00;98946.78;4989638;28;20707;-70
2021/03/24 01:15:25;;;;;;;24.87;10.97;;;;;;;3.67;100.00;98956.72;4980894;28;20215;-70
2021/03/24 01:17:53;;;;;;;19.43;9.57;;;;;;;3.53;100.00;98951.00;4988932;28;20565;-70
2021/03/24 01:20:20;;;;;;;22.07;9.93;;;;;;;3.68;100.00;98945.22;4988080;28;20231;-70
2021/03/24 01:22:47;;;;;;;20.63;9.93;;;;;;;3.79;100.00;98949.53;4988060;28;20208;-70
2021/03/24 01:25:16;;;;;;;23.63;10.17;;;;;;;3.58;100.00;98946.16;4991344;28;20217;-70
2021/03/24 01:27:43;;;;;;;23.07;10.00;;;;;;;3.47;100.00;98948.91;4990486;28;20203;-70
2021/03/24 01:30:10;;;;;;;23.10;10.40;;;;;;;3.44;100.00;98944.72;4990798;28;20232;-70
2021/03/24 01:32:37;;;;;;;22.10;10.93;;;;;;;3.59;100.00;98942.53;4985401;28;20223;-70
2021/03/24 01:35:07;;;;;;;22.77;10.93;;;;;;;3.54;100.00;98934.19;4992072;28;20210;-70
2021/03/24 01:37:34;;;;;;;20.03;9.80;;;;;;;3.44;100.00;98934.19;4990254;28;20913;-70
2021/03/24 01:40:01;;;;;;;21.30;9.93;;;;;;;3.34;100.00;98925.41;4983603;28;20840;-70
2021/03/24 01:42:28;;;;;;;30.53;10.80;;;;;;;3.32;100.00;98927.34;4982472;28;20203;-70
2021/03/24 01:45:01;;;;;;;22.80;9.83;;;;;;;3.31;100.00;98940.66;4988917;28;20211;-70
2021/03/24 01:47:28;;;;;;;22.73;10.93;;;;;;;3.41;100.00;98923.88;4986505;28;20214;-70
2021/03/24 01:49:56;;;;;;;21.93;10.27;;;;;;;3.49;100.00;98929.34;4984452;28;20293;-70
2021/03/24 01:52:24;;;;;;;17.93;9.73;;;;;;;3.46;100.00;98924.31;4986788;28;20199;-70
2021/03/24 01:54:51;;;;;;;22.00;10.23;;;;;;;3.22;100.00;98921.19;4986859;28;20200;-70
2021/03/24 01:57:22;;;;;;;20.30;10.73;;;;;;;3.35;100.00;98926.25;4987155;28;20326;-70
2021/03/24 01:59:49;;;;;;;16.63;9.17;;;;;;;3.35;100.00;98926.25;4987889;28;20712;-70
2021/03/24 02:02:17;;;;;;;23.50;10.07;;;;;;;3.42;100.00;98920.28;4980219;28;20222;-70
2021/03/24 02:04:44;;;;;;;22.13;10.73;;;;;;;3.21;100.00;98924.78;4988895;28;20209;-70
2021/03/24 02:07:15;;;;;;;22.27;10.47;;;;;;;3.13;100.00;98921.13;4986878;28;20587;-70
2021/03/24 02:09:47;;;;;;;24.03;9.93;;;;;;;3.27;100.00;98915.50;4982027;28;20236;-70
2021/03/24 02:12:18;;;;;;;25.20;11.47;;;;;;;3.27;100.00;98921.63;4989338;28;20207;-70
2021/03/24 02:14:49;;;;;;;21.00;11.10;;;;;;;3.10;100.00;98929.34;4990508;28;20212;-70
2021/03/24 02:17:17;;;;;;;21.63;9.80;;;;;;;3.26;100.00;98925.22;4988845;28;20215;-70
2021/03/24 02:20:05;;;;;;;22.70;10.53;;;;;;;3.30;100.00;98926.63;4984610;28;20272;-70
2021/03/24 02:22:36;;;;;;;22.77;9.37;;;;;;;3.22;100.00;98925.63;4981242;28;20222;-70
2021/03/24 02:25:07;;;;;;;22.77;10.60;;;;;;;3.24;100.00;98928.94;4983155;28;20215;-70
2021/03/24 02:27:37;;;;;;;24.13;10.33;;;;;;;3.18;100.00;98925.06;4990101;28;20211;-70
2021/03/24 02:30:08;;;;;;;19.90;9.73;;;;;;;3.09;100.00;98919.72;4982575;28;20224;-70
2021/03/24 02:32:38;;;;;;;21.70;10.17;;;;;;;3.08;100.00;98915.41;4983462;28;20208;-70
2021/03/24 02:35:11;;;;;;;20.10;10.07;;;;;;;3.03;100.00;98915.81;4983413;28;20329;-70
2021/03/24 02:37:38;;;;;;;19.90;10.13;;;;;;;2.87;100.00;98915.47;4981688;28;20208;-70
2021/03/24 02:40:09;;;;;;;19.40;9.30;;;;;;;2.86;100.00;98919.09;4985894;28;20220;-70
2021/03/24 02:42:37;;;;;;;21.70;10.60;;;;;;;2.94;100.00;98919.25;4989457;28;20207;-70
2021/03/24 02:45:06;;;;;;;19.97;9.90;;;;;;;3.05;100.00;98908.59;4988820;28;20205;-70
2021/03/24 02:47:32;;;;;;;21.83;9.80;;;;;;;2.89;100.00;98910.91;4990693;28;20207;-70
2021/03/24 02:49:59;;;;;;;22.80;10.90;;;;;;;2.97;100.00;98915.50;4988221;28;20235;-70
2021/03/24 02:52:27;;;;;;;22.23;10.43;;;;;;;3.03;100.00;98922.91;4986396;28;20215;-70
2021/03/24 02:54:54;;;;;;;23.60;10.97;;;;;;;3.00;100.00;98921.34;4989797;28;20200;-70
2021/03/24 02:57:21;;;;;;;20.00;10.40;;;;;;;2.78;100.00;98920.69;4988410;28;20222;-70
2021/03/24 02:59:50;;;;;;;22.53;10.20;;;;;;;2.88;100.00;98921.56;4981736;28;20242;-70
2021/03/24 03:02:19;;;;;;;24.17;10.27;;;;;;;2.95;100.00;98920.91;4984702;28;20212;-70
2021/03/24 03:04:48;;;;;;;24.43;9.60;;;;;;;2.92;100.00;98922.97;4986248;28;20232;-70
2021/03/24 03:07:18;;;;;;;23.30;9.97;;;;;;;2.81;100.00;98923.06;4984983;28;20211;-70
2021/03/24 03:09:50;;;;;;;19.53;10.70;;;;;;;2.84;100.00;98920.19;4989138;28;20246;-70
2021/03/24 03:12:24;;;;;;;25.37;9.77;;;;;;;2.80;100.00;98926.69;4987545;28;20207;-70
2021/03/24 03:14:58;;;;;;;26.30;11.77;;;;;;;2.95;100.00;98917.47;4992938;28;20229;-70
2021/03/24 03:17:29;;;;;;;25.43;9.60;;;;;;;3.00;100.00;98920.53;4995558;28;20203;-70
2021/03/24 03:20:01;;;;;;;26.13;10.30;;;;;;;2.85;100.00;98920.03;4993900;28;20223;-70
2021/03/24 03:22:31;;;;;;;28.80;11.33;;;;;;;2.75;100.00;98928.88;4990589;28;20665;-70
2021/03/24 03:25:02;;;;;;;22.63;10.23;;;;;;;2.73;100.00;98929.00;4981541;28;20204;-70
2021/03/24 03:27:30;;;;;;;26.50;11.07;;;;;;;2.78;100.00;98920.69;4987195;28;20207;-70
2021/03/24 03:29:59;;;;;;;22.10;10.17;;;;;;;2.79;100.00;98909.19;4986326;28;20298;-70
2021/03/24 03:32:26;;;;;;;24.90;10.93;;;;;;;2.70;100.00;98921.31;4993894;28;20208;-70
2021/03/24 03:34:56;;;;;;;22.03;11.57;;;;;;;2.82;100.00;98922.09;4992622;28;20210;-70
2021/03/24 03:37:24;;;;;;;20.43;9.93;;;;;;;2.71;100.00;98914.28;4982211;28;20204;-70
2021/03/24 03:39:51;;;;;;;22.93;10.50;;;;;;;2.77;100.00;98914.59;4985884;28;20326;-70
2021/03/24 03:42:19;;;;;;;25.33;10.67;;;;;;;2.65;100.00;98906.88;4984429;28;20620;-70
2021/03/24 03:44:46;;;;;;;23.00;11.37;;;;;;;2.62;100.00;98915.88;4985395;28;20211;-70
2021/03/24 03:47:15;;;;;;;25.87;11.17;;;;;;;2.65;100.00;98910.34;4990375;28;20207;-70
2021/03/24 03:49:42;;;;;;;24.90;10.63;;;;;;;2.68;100.00;98909.25;4985035;28;20227;-70
2021/03/24 03:52:23;;;;;;;23.93;9.70;;;;;;;2.75;100.00;98913.88;4992595;28;20227;-70
2021/03/24 03:54:54;;;;;;;27.33;10.83;;;;;;;2.52;100.00;98909.72;4988288;28;20294;-70
2021/03/24 03:57:27;;;;;;;23.57;11.77;;;;;;;2.70;100.00;98910.78;4991240;28;20564;-70
2021/03/24 03:59:56;;;;;;;22.47;11.10;;;;;;;2.60;100.00;98916.97;4991454;28;20231;-70
2021/03/24 04:02:32;;;;;;;22.73;10.67;;;;;;;2.67;100.00;98912.84;4992070;28;20242;-70
2021/03/24 04:05:03;;;;;;;23.77;10.27;;;;;;;2.78;100.00;98916.25;4979182;28;20660;-70
2021/03/24 04:07:35;;;;;;;24.37;11.63;;;;;;;2.70;100.00;98910.78;4989857;28;20744;-70
2021/03/24 04:10:04;;;;;;;22.83;10.10;;;;;;;2.57;100.00;98909.31;4988581;28;20228;-70
2021/03/24 04:12:33;;;;;;;24.27;10.80;;;;;;;2.64;100.00;98908.69;4992361;28;20258;-70
2021/03/24 04:15:02;;;;;;;24.37;11.20;;;;;;;2.65;100.00;98904.25;4987639;28;20215;-70
2021/03/24 04:17:33;;;;;;;25.53;10.77;;;;;;;2.65;100.00;98905.06;4990260;28;20204;-70
2021/03/24 04:20:03;;;;;;;27.77;10.53;;;;;;;2.60;100.00;98904.63;4988400;28;20227;-70
2021/03/24 04:22:32;;;;;;;23.17;12.13;;;;;;;2.66;100.00;98903.28;4989498;28;20204;-70
2021/03/24 04:24:59;;;;;;;26.23;11.23;;;;;;;2.71;100.00;98898.47;4986290;28;20219;-70
2021/03/24 04:27:29;;;;;;;23.00;11.23;;;;;;;2.53;100.00;98916.66;4989038;28;20205;-70
2021/03/24 04:30:00;;;;;;;25.43;10.63;;;;;;;2.61;100.00;98905.47;4982431;28;20233;-70
2021/03/24 04:32:27;;;;;;;21.23;11.00;;;;;;;2.43;100.00;98913.13;4991660;28;20649;-70
2021/03/24 04:34:54;;;;;;;31.77;12.57;;;;;;;2.72;100.00;98908.03;4990981;28;20258;-70
2021/03/24 04:37:25;;;;;;;27.23;11.23;;;;;;;2.60;100.00;98912.53;4988467;28;20661;-70
2021/03/24 04:39:54;;;;;;;24.40;10.83;;;;;;;2.50;100.00;98914.25;4988843;28;20315;-70
2021/03/24 04:42:24;;;;;;;22.67;10.87;;;;;;;2.62;100.00;98913.25;4985269;28;20204;-70
2021/03/24 04:44:54;;;;;;;26.57;11.00;;;;;;;2.60;100.00;98911.72;4986375;28;20799;-70
2021/03/24 04:47:25;;;;;;;23.43;11.33;;;;;;;2.59;100.00;98916.13;4989336;28;20215;-70
2021/03/24 04:49:55;;;;;;;25.13;11.93;;;;;;;2.39;100.00;98916.97;4988548;28;20223;-70
2021/03/24 04:52:23;;;;;;;26.03;11.60;;;;;;;2.48;100.00;98920.63;4990336;28;20938;-70
2021/03/24 04:54:51;;;;;;;29.70;12.03;;;;;;;2.49;100.00;98917.88;4988798;28;20211;-70
2021/03/24 04:57:21;;;;;;;25.43;10.80;;;;;;;2.69;100.00;98924.13;4984899;28;20579;-70
2021/03/24 04:59:51;;;;;;;25.17;10.50;;;;;;;2.71;100.00;98909.00;4989807;28;20658;-70
2021/03/24 05:02:21;;;;;;;23.10;11.43;;;;;;;2.63;100.00;98914.91;4986452;28;20208;-70
2021/03/24 05:04:52;;;;;;;22.27;10.33;;;;;;;2.70;100.00;98913.41;4985506;28;20211;-70
2021/03/24 05:07:30;;;;;;;25.20;11.60;;;;;;;2.58;100.00;98918.88;4986762;28;20219;-70
2021/03/24 05:09:57;;;;;;;24.53;10.37;;;;;;;2.60;100.00;98915.16;4984409;28;20831;-70
2021/03/24 05:12:27;;;;;;;25.50;11.33;;;;;;;2.47;100.00;98917.19;4989844;28;20203;-70
2021/03/24 05:14:58;;;;;;;22.63;11.40;;;;;;;2.60;100.00;98920.44;4986104;28;20207;-70
2021/03/24 05:17:27;;;;;;;27.40;11.93;;;;;;;2.40;100.00;98923.09;4990231;28;20212;-70
2021/03/24 05:19:59;;;;;;;27.13;12.03;;;;;;;2.41;100.00;98922.13;4983475;28;20228;-70
2021/03/24 05:22:29;;;;;;;23.80;11.47;;;;;;;2.52;100.00;98919.41;4992053;28;20262;-70
2021/03/24 05:25:02;;;;;;;27.10;12.80;;;;;;;2.50;100.00;98919.53;4981792;28;20211;-70
2021/03/24 05:27:33;;;;;;;30.10;12.00;;;;;;;2.60;100.00;98923.06;4990150;28;20207;-70
2021/03/24 05:30:06;;;;;;;26.40;11.53;;;;;;;2.65;100.00;98928.78;4988775;28;20220;-70
2021/03/24 05:32:36;;;;;;;29.63;11.57;;;;;;;2.61;100.00;98923.91;4991912;28;20657;-70
2021/03/24 05:35:16;;;;;;;28.03;12.33;;;;;;;2.53;100.00;98929.81;4990026;28;20692;-70
2021/03/24 05:37:43;;;;;;;30.27;11.93;;;;;;;2.54;100.00;98928.84;4994343;28;20200;-70
2021/03/24 05:40:32;;;;;;;30.27;12.43;;;;;;;2.43;100.00;98939.47;4984309;28;20228;-70
2021/03/24 05:43:09;;;;;;;28.37;12.20;;;;;;;2.90;100.00;98931.00;4988037;28;20638;-71
2021/03/24 05:45:42;;;;;;;27.67;12.10;;;;;;;2.97;100.00;98932.19;4981924;28;20208;-70
2021/03/24 05:48:35;;;;;;;27.93;11.77;;;;;;;2.98;100.00;98938.28;4984072;28;20204;-71
2021/03/24 05:51:27;;;;;;;28.60;11.83;;;;;;;3.07;100.00;98933.06;4984459;28;20227;-70
2021/03/24 05:54:23;;;;;;;25.67;12.03;;;;;;;3.11;100.00;98936.25;4987444;28;20200;-72
2021/03/24 05:57:09;;;;;;;27.67;12.40;;;;;;;3.18;100.00;98934.75;4986423;28;20215;-69
2021/03/24 05:59:42;;;;;;;31.63;12.33;;;;;;;3.16;100.00;98942.78;4990928;28;20255;-70
2021/03/24 06:02:16;;;;;;;28.17;13.43;;;;;;;3.29;100.00;98937.28;4986459;28;20209;-68
2021/03/24 06:04:47;;;;;;;26.20;12.87;;;;;;;3.38;100.00;98936.50;4989511;28;20207;-69
2021/03/24 06:07:56;;;;;;;24.20;11.93;;;;;;;3.53;100.00;98943.09;4987676;28;20207;-69
2021/03/24 06:10:50;;;;;;;26.33;12.43;;;;;;;3.52;100.00;98937.00;4986696;28;20371;-69
2021/03/24 06:13:49;;;;;;;25.97;12.03;;;;;;;3.61;100.00;98940.63;4988207;28;20242;-70
2021/03/24 06:16:51;;;;;;;31.80;12.23;;;;;;;3.95;100.00;98936.63;4988330;28;20342;-70
2021/03/24 06:19:22;;;;;;;26.60;13.30;;;;;;;4.04;100.00;98939.31;4992649;28;20260;-69
2021/03/24 06:22:00;;;;;;;33.10;14.27;;;;;;;4.00;100.00;98935.28;4984852;28;20196;-70
2021/03/24 06:24:45;;;;;;;31.37;13.23;;;;;;;4.17;100.00;98939.03;4990602;28;20219;-70
2021/03/24 06:27:27;;;;;;;35.03;14.27;;;;;;;4.32;100.00;98940.31;4986234;28;20273;-70
2021/03/24 06:30:07;;;;;;;34.00;13.83;;;;;;;4.58;100.00;98936.09;4989423;28;20230;-70
2021/03/24 06:32:45;;;;;;;31.80;15.07;;;;;;;4.71;100.00;98939.28;4991347;28;20710;-69
2021/03/24 06:35:24;;;;;;;31.57;14.67;;;;;;;4.89;100.00;98933.13;4986987;28;20214;-69
2021/03/24 06:38:15;;;;;;;27.97;14.77;;;;;;;4.89;100.00;98934.94;4983629;28;20207;-70
2021/03/24 06:40:56;;;;;;;31.57;14.00;;;;;;;5.09;100.00;98942.69;4984560;28;20199;-69
2021/03/24 06:43:42;;;;;;;29.73;14.90;;;;;;;4.82;100.00;98947.06;4990658;28;20207;-69
2021/03/24 06:46:21;;;;;;;32.03;15.43;;;;;;;5.19;100.00;98945.28;4986807;28;20652;-69
2021/03/24 06:49:02;;;;;;;33.93;14.83;;;;;;;5.53;100.00;98944.59;4975208;28;20223;-69
2021/03/24 06:52:37;;;;;;;30.17;14.70;;;;;;;5.85;100.00;98949.47;4987098;28;20234;-69
2021/03/24 06:55:43;;;;;;;32.53;13.97;;;;;;;6.02;100.00;98938.06;4931916;29;20217;-69
2021/03/24 06:58:35;;;;;;;30.23;14.30;;;;;;;6.19;100.00;98939.91;4984253;28;20217;-69
2021/03/24 07:01:21;;;;;;;29.33;14.43;;;;;;;5.36;100.00;98932.13;4975683;28;20264;-68
2021/03/24 07:04:25;;;;;;;29.70;14.53;;;;;;;5.56;100.00;98935.50;4977464;28;20263;-71
2021/03/24 07:07:22;;;;;;;28.47;14.73;;;;;;;5.48;100.00;98936.25;4927287;29;20595;-69
2021/03/24 07:09:56;;;;;;;27.10;12.20;;;;;;;5.56;100.00;98946.94;4956923;28;20325;-70
2021/03/24 07:12:27;;;;;;;23.57;11.60;;;;;;;5.50;100.00;98950.19;4990317;28;20235;-69
2021/03/24 07:15:28;;;;;;;26.33;11.63;;;;;;;5.86;100.00;98954.63;4984371;28;20212;-67
2021/03/24 07:18:16;;;;;;;29.17;11.93;;;;;;;6.12;100.00;98950.28;4983460;28;20214;-67
2021/03/24 07:21:03;;;;;;;21.37;9.73;;;;;;;6.68;100.00;98957.91;4986569;28;20206;-70
2021/03/24 07:24:10;;;;;;;21.53;11.03;;;;;;;7.05;100.00;98955.88;4980374;28;20228;-68
2021/03/24 07:27:13;;;;;;;21.80;10.27;;;;;;;7.33;100.00;98960.03;4988728;28;20210;-69
2021/03/24 07:29:57;;;;;;;20.37;11.20;;;;;;;7.45;100.00;98967.56;4956061;28;20715;-70
2021/03/24 07:32:37;;;;;;;24.20;11.67;;;;;;;7.62;100.00;98961.31;4985580;28;20297;-70
2021/03/24 07:35:11;;;;;;;24.30;10.40;;;;;;;7.89;97.41;98962.94;4988167;28;20224;-69
2021/03/24 07:38:35;;;;;;;20.37;9.80;;;;;;;7.85;96.89;98967.75;4985713;28;20204;-69
2021/03/24 07:41:34;;;;;;;23.67;10.87;;;;;;;8.03;94.96;98957.88;4987676;28;20575;-70
2021/03/24 07:44:15;;;;;;;21.73;10.70;;;;;;;7.56;100.00;98954.00;4963174;28;20312;-70
2021/03/24 07:47:09;;;;;;;20.90;9.87;;;;;;;8.21;95.36;98961.25;4989884;28;20551;-69
2021/03/24 07:49:58;;;;;;;20.60;9.97;;;;;;;8.20;92.87;98961.41;4989943;28;20300;-69
2021/03/24 07:52:58;;;;;;;28.13;10.67;;;;;;;8.66;90.96;98966.13;4987739;28;20238;-69
2021/03/24 07:55:32;;;;;;;19.63;9.57;;;;;;;8.76;88.18;98962.31;4991161;28;20242;-69
2021/03/24 07:58:28;;;;;;;20.27;10.43;;;;;;;8.84;87.47;98966.81;4991658;28;20207;-69
2021/03/24 08:00:59;;;;;;;19.37;9.07;;;;;;;8.92;85.86;98962.31;4990857;28;20204;-69
2021/03/24 08:03:31;;;;;;;17.63;9.63;;;;;;;9.37;83.19;98962.56;4990780;28;20230;-70
2021/03/24 08:06:14;;;;;;;22.73;9.97;;;;;;;9.05;84.50;98959.97;4991688;28;20214;-70
2021/03/24 08:09:08;;;;;;;18.70;9.17;;;;;;;9.01;85.15;98952.47;4992707;28;20712;-70
2021/03/24 08:11:40;;;;;;;17.03;8.90;;;;;;;8.99;84.69;98949.97;4982265;28;20326;-70
2021/03/24 08:14:19;;;;;;;19.97;8.40;;;;;;;10.02;88.32;98940.00;4989257;28;20218;-70
2021/03/24 08:17:00;;;;;;;22.17;9.97;;;;;;;9.64;79.79;98956.00;4990490;28;20214;-70
2021/03/24 08:19:47;;;;;;;19.57;9.80;;;;;;;9.05;80.86;98956.47;4994517;28;20227;-70
2021/03/24 08:22:29;;;;;;;17.90;9.17;;;;;;;8.94;83.21;98944.31;4990753;28;20210;-70
2021/03/24 08:25:08;;;;;;;16.43;8.63;;;;;;;9.07;82.05;98952.63;4990066;28;20299;-70
2021/03/24 08:27:39;;;;;;;18.80;10.30;;;;;;;9.86;76.28;98955.25;4994677;28;20265;-70
2021/03/24 08:30:13;;;;;;;20.53;9.80;;;;;;;9.34;76.98;98964.75;4994129;28;20282;-70
2021/03/24 08:33:20;;;;;;;16.03;9.37;;;;;;;9.15;80.69;98952.66;4994717;28;20238;-70
2021/03/24 08:36:06;;;;;;;19.77;9.07;;;;;;;9.55;79.02;98955.19;4974116;28;20207;-70
2021/03/24 08:39:10;;;;;;;19.70;8.93;;;;;;;9.88;74.48;98954.06;4994089;28;20254;-70
2021/03/24 08:42:26;;;;;;;23.00;9.87;;;;;;;8.93;83.73;98939.19;4979040;28;20208;-70
2021/03/24 08:44:56;;;;;;;18.00;9.20;;;;;;;9.52;79.44;98949.38;4993292;28;20216;-70
2021/03/24 08:47:25;;;;;;;20.77;10.43;;;;;;;9.48;79.81;98943.56;4993690;28;20211;-69
2021/03/24 08:49:54;;;;;;;16.77;9.30;;;;;;;9.06;82.44;98945.66;4993953;28;20238;-69
2021/03/24 08:52:40;;;;;;;19.97;10.17;;;;;;;8.98;83.88;98944.84;4994058;28;20599;-69
2021/03/24 08:55:21;;;;;;;22.67;9.50;;;;;;;9.46;80.50;98937.59;4992743;28;20214;-69
2021/03/24 08:58:10;;;;;;;23.30;9.90;;;;;;;9.32;80.14;98935.63;4984957;28;20226;-69
2021/03/24 09:00:52;;;;;;;18.37;9.10;;;;;;;9.46;79.03;98950.06;4992703;28;20238;-69
2021/03/24 09:03:52;;;;;;;17.00;9.03;;;;;;;10.07;75.70;98945.69;4992133;28;20212;-70
2021/03/24 09:06:27;;;;;;;16.17;9.10;;;;;;;10.32;74.14;98947.22;4989589;28;20208;-72
2021/03/24 09:09:03;;;;;;;18.50;9.70;;;;;;;9.78;76.63;98940.13;4996230;28;20315;-72
2021/03/24 09:11:47;;;;;;;20.57;9.40;;;;;;;10.44;73.03;98945.78;4997719;28;20277;-72
2021/03/24 09:14:24;;;;;;;15.73;8.47;;;;;;;9.93;74.72;98951.72;5002956;28;20254;-72
2021/03/24 09:17:25;;;;;;;17.63;8.83;;;;;;;10.34;72.54;98949.69;4988461;28;20203;-72
2021/03/24 09:20:40;;;;;;;18.77;9.47;;;;;;;10.74;69.85;98950.22;4984678;28;20283;-72
2021/03/24 09:23:31;;;;;;;15.93;8.67;;;;;;;10.90;71.45;98954.63;4925632;29;20674;-72
2021/03/24 09:26:12;;;;;;;21.20;9.50;;;;;;;11.16;69.49;98953.19;4956809;28;20259;-69
2021/03/24 09:28:54;;;;;;;22.27;8.97;;;;;;;10.68;69.36;98956.28;4983191;28;20228;-70
2021/03/24 09:31:41;;;;;;;19.27;10.23;;;;;;;11.31;65.54;98955.91;4988853;28;20229;-70
2021/03/24 09:34:18;;;;;;;26.03;10.43;;;;;;;11.22;66.37;98951.66;4983245;28;20214;-70
2021/03/24 09:36:54;;;;;;;16.80;8.60;;;;;;;10.14;74.49;98933.28;4984645;28;20210;-69
2021/03/24 09:39:25;;;;;;;17.33;10.13;;;;;;;10.26;73.31;98942.56;4992837;28;20242;-70
2021/03/24 09:41:56;;;;;;;19.43;9.53;;;;;;;10.53;71.77;98941.22;4991000;28;20250;-69
2021/03/24 09:44:31;;;;;;;23.87;10.27;;;;;;;11.25;66.93;98935.22;4987451;28;20201;-70
2021/03/24 09:46:58;;;;;;;16.93;9.27;;;;;;;11.41;65.38;98941.25;4988537;28;20230;-69
2021/03/24 09:49:31;;;;;;;20.07;9.30;;;;;;;11.39;69.06;98929.06;4983248;28;20225;-70
2021/03/24 09:52:19;;;;;;;20.57;9.83;;;;;;;11.43;66.48;98928.53;4987534;28;20225;-69
2021/03/24 09:55:10;;;;;;;18.20;9.87;;;;;;;11.69;65.58;98922.75;4989628;28;20208;-69
2021/03/24 09:57:50;;;;;;;22.03;10.60;;;;;;;11.47;65.96;98918.31;4986846;28;20209;-69
2021/03/24 10:00:19;;;;;;;19.57;10.40;;;;;;;11.34;65.80;98923.44;4990240;28;20235;-69
2021/03/24 10:02:49;;;;;;;17.70;8.60;;;;;;;11.81;62.40;98929.28;4991054;28;20209;-69
2021/03/24 10:05:23;;;;;;;18.40;9.33;;;;;;;11.31;65.15;98919.31;4983768;28;20215;-70
2021/03/24 10:08:00;;;;;;;16.47;8.80;;;;;;;11.95;62.06;98916.91;4977160;28;20215;-70
2021/03/24 10:10:31;;;;;;;17.93;9.57;;;;;;;11.88;63.27;98914.97;4982988;28;20234;-69
2021/03/24 10:13:03;;;;;;;16.37;9.23;;;;;;;12.17;59.99;98921.28;4986438;28;20207;-70
2021/03/24 10:15:36;;;;;;;19.23;9.13;;;;;;;12.20;60.33;98916.38;4985491;28;20208;-70
2021/03/24 10:18:08;;;;;;;15.27;9.40;;;;;;;12.57;57.97;98917.00;4988917;28;20206;-70
2021/03/24 10:20:39;;;;;;;20.20;8.83;;;;;;;12.60;58.01;98926.50;4982675;28;20272;-69
2021/03/24 10:23:14;;;;;;;24.27;9.63;;;9.70;1.00;;;12.49;57.21;98930.50;4984331;28;20309;-69
2021/03/24 10:25:44;;;;;;;19.63;8.67;;;9.80;1.00;;;12.47;57.32;98923.66;4990697;28;20206;-69
2021/03/24 10:28:18;;;;;;;16.23;8.13;;;9.80;1.00;;;12.59;57.40;98922.16;4980763;28;20213;-70
2021/03/24 10:30:57;;;;;;;18.90;9.80;;;9.90;1.00;;;12.16;58.55;98915.09;4985234;28;20721;-71
2021/03/24 10:33:33;;;;;;;17.33;8.50;;;9.90;1.00;;;11.93;59.85;98905.56;4978784;28;20213;-69
2021/03/24 10:36:05;;;;;;;17.97;9.50;;;9.60;1.00;;;12.10;57.97;98907.81;4990432;28;20202;-70
2021/03/24 10:38:47;;;;;;;16.00;9.03;;;9.60;1.00;;;13.40;53.94;98901.00;4986743;28;20338;-71
2021/03/24 10:41:38;;;;;;;16.83;9.23;;;10.00;1.00;;;13.66;53.11;98905.66;4990735;28;20300;-71
2021/03/24 10:44:14;;;;;;;18.10;8.53;;;10.30;1.00;;;13.82;51.60;98905.34;4991048;28;20669;-71
2021/03/24 10:46:48;;;;;;;17.47;8.60;;;;;;;14.20;54.25;98903.88;4991917;28;20216;-70
2021/03/24 10:49:19;;;;;;;14.03;8.30;;;11.40;1.00;;;14.44;48.87;98911.38;4990845;28;20287;-71
2021/03/24 10:52:04;;;;;;;18.40;9.70;;;11.30;1.00;;;13.31;54.99;98896.81;4987324;28;20267;-72
2021/03/24 10:54:33;;;;;;;18.97;8.57;;;;;;;14.12;55.02;98893.28;4985501;28;20224;-70
2021/03/24 10:57:30;;;;;;;18.47;8.60;;;;;;;14.58;51.14;98895.06;4991745;28;20304;-72
2021/03/24 11:00:10;;;;;;;19.63;8.87;;;;;;;14.95;48.10;98899.84;4978916;28;20703;-69
2021/03/24 11:02:45;;;;;;;15.87;8.67;;;;;;;13.62;50.10;98899.06;4988465;28;20215;-69
2021/03/24 11:05:15;;;;;;;19.40;8.30;;;;;;;13.01;53.65;98883.81;4986219;28;20208;-72
2021/03/24 11:07:46;;;;;;;19.03;9.40;;;;;;;13.40;52.70;98881.38;4989375;28;20617;-72
2021/03/24 11:10:32;;;;;;;20.10;8.37;;;;;;;13.42;53.89;98879.34;4987873;28;20236;-69
2021/03/24 11:13:02;;;;;;;19.87;8.37;;;;;;;13.54;51.92;98883.97;4983265;28;20207;-70
2021/03/24 11:15:46;;;;;;;15.77;8.93;;;;;;;13.42;54.48;98871.31;4987781;28;20196;-70
2021/03/24 11:18:18;;;;;;;17.03;8.50;;;;;;;13.51;52.85;98878.16;4985124;28;20250;-70
2021/03/24 11:20:47;;;;;;;19.53;8.97;;;;;;;14.21;49.89;98884.03;4989861;28;20634;-70
2021/03/24 11:23:19;;;;;;;17.43;9.00;;;;;;;14.61;48.49;98880.41;4987867;28;20228;-70
2021/03/24 11:25:51;;;;;;;20.20;9.20;;;;;;;14.35;48.52;98875.84;4987173;28;20211;-70
2021/03/24 11:28:26;;;;;;;19.70;9.47;;;;;;;14.31;48.84;98876.44;4986879;28;20205;-71
2021/03/24 11:31:01;;;;;;;19.97;8.60;;;;;;;15.30;47.30;98869.00;4982951;28;20204;-74
2021/03/24 11:33:35;;;;;;;17.00;8.90;;;;;;;14.98;45.63;98874.41;4990163;28;20215;-74
2021/03/24 11:36:04;;;;;;;15.97;8.83;;;;;;;14.61;47.84;98869.66;4986824;28;20578;-73
2021/03/24 11:38:38;;;;;;;17.33;8.60;;;;;;;15.28;46.48;98871.09;4987290;28;20258;-75
2021/03/24 11:41:08;;;;;;;17.13;8.90;;;;;;;14.76;46.80;98863.06;4989138;28;20222;-77
2021/03/24 11:43:37;;;;;;;18.83;9.57;;;;;;;14.47;47.81;98860.78;4986013;28;20208;-76
2021/03/24 11:46:20;;;;;;;19.30;9.73;;;;;;;14.56;48.61;98862.22;4986943;28;20210;-76
2021/03/24 11:49:20;;;;;;;15.57;8.73;;;;;;;15.04;47.23;98860.97;4987296;28;20444;-75
2021/03/24 11:52:01;;;;;;;15.00;9.17;;;;;;;15.23;46.44;98861.97;4985273;28;20234;-75
2021/03/24 11:54:35;;;;;;;19.03;9.43;;;;;;;15.10;46.94;98859.31;4990318;28;20204;-74
2021/03/24 11:57:16;;;;;;;20.63;10.03;;;;;;;15.57;48.34;98856.34;4994263;28;20576;-75
2021/03/24 12:00:05;;;;;;;17.93;9.77;;;;;;;14.81;47.67;98862.44;4991674;28;20234;-77